Time;durP1;ratioP1;P1;durP2;ratioP2;P2;SDS_P1;SDS_P2;PMS_P1;PMS_P2;Temp;Humidity;BMP_temperature;BMP_pressure;BME280_temperature;BME280_humidity;BME280_pressure;Samples;Min_cycle;Max_cycle;Signal;HPM_P1;HPM_P2
2023/04/01 00:01:08;;;;;;;;;;;8.60;99.90;;;;;;5043223;28;20200;-68
2023/04/01 00:03:35;;;;;;;;;;;8.60;99.90;;;;;;5046035;28;19921;-67
2023/04/01 00:06:03;;;;;;;;;;;8.60;99.90;;;;;;5045524;28;20234;-68
2023/04/01 00:08:30;;;;;;;;;;;8.50;99.90;;;;;;5046033;28;19996;-68
2023/04/01 00:10:57;;;;;;;;;;;8.50;99.90;;;;;;5045348;28;19929;-67
2023/04/01 00:13:25;;;;;;;;;;;8.50;99.90;;;;;;5046204;28;19936;-68
2023/04/01 00:15:52;;;;;;;;;;;8.40;99.90;;;;;;5046067;28;19921;-67
2023/04/01 00:18:19;;;;;;;;;;;8.40;99.90;;;;;;5045848;28;20200;-68
2023/04/01 00:20:46;;;;;;;;;;;8.40;99.90;;;;;;5046086;28;19988;-68
2023/04/01 00:23:14;;;;;;;;;;;8.40;99.90;;;;;;5046440;28;19948;-69
2023/04/01 00:25:41;;;;;;;;;;;8.30;99.90;;;;;;5045850;28;20351;-69
2023/04/01 00:28:08;;;;;;;;;;;8.30;99.90;;;;;;5046050;28;19992;-68
2023/04/01 00:30:36;;;;;;;;;;;8.30;99.90;;;;;;5046066;28;19971;-68
2023/04/01 00:33:03;;;;;;;;;;;8.20;99.90;;;;;;5046296;28;19921;-68
2023/04/01 00:35:29;;;;;;;;;;;8.20;99.90;;;;;;5045991;28;19963;-68
2023/04/01 00:37:56;;;;;;;;;;;8.20;99.90;;;;;;5045661;28;19957;-68
2023/04/01 00:40:31;;;;;;;;;;;8.30;99.90;;;;;;5045923;28;19928;-68
2023/04/01 00:42:58;;;;;;;;;;;8.40;99.90;;;;;;5045330;28;19928;-67
2023/04/01 00:45:30;;;;;;;;;;;8.40;99.90;;;;;;5045463;28;19921;-68
2023/04/01 00:47:59;;;;;;;;;;;8.30;99.90;;;;;;5045648;28;19979;-68
2023/04/01 00:50:27;;;;;;;;;;;8.40;99.90;;;;;;5045645;28;19952;-68
2023/04/01 00:52:54;;;;;;;;;;;8.40;99.90;;;;;;5044434;28;19921;-69
2023/04/01 00:55:22;;;;;;;;;;;8.40;99.90;;;;;;5044578;28;19921;-68
2023/04/01 00:57:51;;;;;;;;;;;8.40;99.90;;;;;;5045377;28;19921;-67
2023/04/01 01:00:18;;;;;;;;;;;8.40;99.90;;;;;;5045188;28;19927;-68
2023/04/01 01:02:46;;;;;;;;;;;8.40;99.90;;;;;;5045342;28;19928;-68
2023/04/01 01:05:13;;;;;;;;;;;8.40;99.90;;;;;;5044575;28;20136;-68
2023/04/01 01:07:42;;;;;;;;;;;8.50;99.90;;;;;;5045269;28;19983;-68
2023/04/01 01:10:10;;;;;;;;;;;8.40;99.90;;;;;;5024754;28;19928;-68
2023/04/01 01:12:40;;;;;;;;;;;8.40;99.90;;;;;;5025965;28;19967;-68
2023/04/01 01:15:12;;;;;;;;;;;8.40;99.90;;;;;;5024996;28;20209;-69
2023/04/01 01:17:49;;;;;;;;;;;8.40;99.90;;;;;;5025158;28;19988;-68
2023/04/01 01:20:36;;;;;;;;;;;8.40;99.90;;;;;;5025541;28;19922;-68
2023/04/01 01:23:21;;;;;;;;;;;8.40;99.90;;;;;;5025402;28;19928;-68
2023/04/01 01:25:52;;;;;;;;;;;8.40;99.90;;;;;;5024100;28;19936;-68
2023/04/01 01:28:26;;;;;;;;;;;8.40;99.90;;;;;;5025329;28;19921;-69
2023/04/01 01:30:58;;;;;;;;;;;8.40;99.90;;;;;;5025268;28;20399;-70
2023/04/01 01:33:32;;;;;;;;;;;8.40;99.90;;;;;;5025388;28;19992;-69
2023/04/01 01:36:01;;;;;;;;;;;8.40;99.90;;;;;;5024823;28;19985;-70
2023/04/01 01:38:30;;;;;;;;;;;8.40;99.90;;;;;;5024829;28;20159;-70
2023/04/01 01:40:58;;;;;;;;;;;8.40;99.90;;;;;;5024820;28;19921;-70
2023/04/01 01:43:27;;;;;;;;;;;8.40;99.90;;;;;;5024802;28;20287;-69
2023/04/01 01:45:56;;;;;;;;;;;8.40;99.90;;;;;;5024250;28;19926;-70
2023/04/01 01:48:24;;;;;;;;;;;8.40;99.90;;;;;;5024206;28;20112;-70
2023/04/01 01:50:50;;;;;;;;;;;8.40;99.90;;;;;;5043830;28;19921;-70
2023/04/01 01:53:18;;;;;;;;;;;8.40;99.90;;;;;;5044701;28;19959;-70
2023/04/01 01:55:46;;;;;;;;;;;8.40;99.90;;;;;;5049142;28;19988;-69
2023/04/01 01:58:14;;;;;;;;;;;8.40;99.90;;;;;;5064247;28;19988;-70
2023/04/01 02:00:42;;;;;;;;;;;8.40;99.90;;;;;;5063773;28;19959;-70
2023/04/01 02:03:09;;;;;;;;;;;8.30;99.90;;;;;;5060517;28;19948;-69
2023/04/01 02:05:36;;;;;;;;;;;8.40;99.90;;;;;;5044049;28;19921;-69
2023/04/01 02:08:06;;;;;;;;;;;8.40;99.90;;;;;;5043682;28;19928;-69
2023/04/01 02:10:36;;;;;;;;;;;8.30;99.90;;;;;;5042993;28;19952;-69
2023/04/01 02:13:06;;;;;;;;;;;8.30;99.90;;;;;;5041897;28;20168;-70
2023/04/01 02:15:34;;;;;;;;;;;8.40;99.90;;;;;;5043419;28;20205;-67
2023/04/01 02:18:02;;;;;;;;;;;8.30;99.90;;;;;;5042312;28;19929;-67
2023/04/01 02:20:29;;;;;;;;;;;8.40;99.90;;;;;;5042684;28;19971;-70
2023/04/01 02:22:58;;;;;;;;;;;8.30;99.90;;;;;;5044113;28;19921;-70
2023/04/01 02:25:25;;;;;;;;;;;8.30;99.90;;;;;;5043573;28;19921;-70
2023/04/01 02:27:55;;;;;;;;;;;8.30;99.90;;;;;;5043394;28;19927;-69
2023/04/01 02:30:22;;;;;;;;;;;8.30;99.90;;;;;;5043866;28;19992;-69
2023/04/01 02:32:49;;;;;;;;;;;8.30;99.90;;;;;;5043678;28;19927;-69
2023/04/01 02:35:17;;;;;;;;;;;8.30;99.90;;;;;;5043530;28;19920;-70
2023/04/01 02:37:44;;;;;;;;;;;8.30;99.90;;;;;;5043695;28;19929;-70
2023/04/01 02:40:12;;;;;;;;;;;8.30;99.90;;;;;;5042624;28;20228;-69
2023/04/01 02:42:39;;;;;;;;;;;8.30;99.90;;;;;;5041569;28;19936;-70
2023/04/01 02:45:08;;;;;;;;;;;8.30;99.90;;;;;;5042182;28;19929;-68
2023/04/01 02:47:34;;;;;;;;;;;8.30;99.90;;;;;;5041531;28;19936;-69
2023/04/01 02:50:01;;;;;;;;;;;8.30;99.90;;;;;;5041045;28;19988;-68
2023/04/01 02:52:28;;;;;;;;;;;8.30;99.90;;;;;;5041001;28;20279;-69
2023/04/01 02:54:55;;;;;;;;;;;8.30;99.90;;;;;;5041043;28;20011;-70
2023/04/01 02:57:22;;;;;;;;;;;8.30;99.90;;;;;;5040858;28;19921;-69
2023/04/01 02:59:49;;;;;;;;;;;8.30;99.90;;;;;;5041002;28;19961;-68
2023/04/01 03:02:17;;;;;;;;;;;8.30;99.90;;;;;;5040835;28;19929;-70
2023/04/01 03:04:44;;;;;;;;;;;8.30;99.90;;;;;;5040807;28;19929;-69
2023/04/01 03:07:11;;;;;;;;;;;8.30;99.90;;;;;;5040572;28;19929;-71
2023/04/01 03:09:38;;;;;;;;;;;8.30;99.90;;;;;;5041106;28;19928;-69
2023/04/01 03:12:05;;;;;;;;;;;8.30;99.90;;;;;;5021195;28;19992;-69
2023/04/01 03:14:31;;;;;;;;;;;8.30;99.90;;;;;;5020224;28;20149;-69
2023/04/01 03:16:58;;;;;;;;;;;8.30;99.90;;;;;;5020418;28;20251;-69
2023/04/01 03:19:26;;;;;;;;;;;8.30;99.90;;;;;;5020621;28;19964;-69
2023/04/01 03:21:53;;;;;;;;;;;8.20;99.90;;;;;;5037942;28;19921;-69
2023/04/01 03:24:20;;;;;;;;;;;8.20;99.90;;;;;;5040363;28;20315;-71
2023/04/01 03:26:47;;;;;;;;;;;8.30;99.90;;;;;;5040074;28;19921;-69
2023/04/01 03:29:15;;;;;;;;;;;8.20;99.90;;;;;;5040246;28;19988;-69
2023/04/01 03:31:42;;;;;;;;;;;8.20;99.90;;;;;;5040476;28;19988;-69
2023/04/01 03:34:09;;;;;;;;;;;8.20;99.90;;;;;;5040119;28;19929;-69
2023/04/01 03:36:37;;;;;;;;;;;8.10;99.90;;;;;;5039813;28;19928;-69
2023/04/01 03:39:04;;;;;;;;;;;8.10;99.90;;;;;;5040341;28;20001;-69
2023/04/01 03:41:31;;;;;;;;;;;8.00;99.90;;;;;;5040298;28;19935;-68
2023/04/01 03:43:58;;;;;;;;;;;8.00;99.90;;;;;;5040393;28;19998;-70
2023/04/01 03:46:24;;;;;;;;;;;8.00;99.90;;;;;;5036595;28;19929;-69
2023/04/01 03:48:51;;;;;;;;;;;8.00;99.90;;;;;;5036257;28;19963;-70
2023/04/01 03:51:17;;;;;;;;;;;8.00;99.90;;;;;;5040384;28;19996;-69
2023/04/01 03:53:45;;;;;;;;;;;8.00;99.90;;;;;;5040441;28;19992;-69
2023/04/01 03:56:12;;;;;;;;;;;8.00;99.90;;;;;;5040200;28;19967;-69
2023/04/01 03:58:39;;;;;;;;;;;8.00;99.90;;;;;;5039883;28;19997;-70
2023/04/01 04:01:14;;;;;;;;;;;8.00;99.90;;;;;;5039996;28;19936;-70
2023/04/01 04:03:40;;;;;;;;;;;8.00;99.90;;;;;;5040189;28;19929;-70
2023/04/01 04:06:10;;;;;;;;;;;7.90;99.90;;;;;;5039775;28;19935;-70
2023/04/01 04:08:37;;;;;;;;;;;8.00;99.90;;;;;;5039857;28;19960;-69
2023/04/01 04:11:05;;;;;;;;;;;8.00;99.90;;;;;;5039874;28;19956;-68
2023/04/01 04:13:32;;;;;;;;;;;8.00;99.90;;;;;;5039616;28;20291;-69
2023/04/01 04:15:59;;;;;;;;;;;7.90;99.90;;;;;;5039757;28;19960;-70
2023/04/01 04:18:25;;;;;;;;;;;7.90;99.90;;;;;;5039875;28;19936;-70
2023/04/01 04:20:53;;;;;;;;;;;7.90;99.90;;;;;;5040089;28;19927;-68
2023/04/01 04:23:20;;;;;;;;;;;7.90;99.90;;;;;;5042075;28;19960;-69
2023/04/01 04:25:53;;;;;;;;;;;7.90;99.90;;;;;;5040994;28;19996;-69
2023/04/01 04:28:22;;;;;;;;;;;7.90;99.90;;;;;;5044736;28;19921;-68
2023/04/01 04:30:48;;;;;;;;;;;7.90;99.90;;;;;;5044606;28;19988;-69
2023/04/01 04:33:15;;;;;;;;;;;7.90;99.90;;;;;;5043273;28;19967;-69
2023/04/01 04:35:41;;;;;;;;;;;7.90;99.90;;;;;;5043496;28;19992;-70
2023/04/01 04:38:08;;;;;;;;;;;8.00;99.90;;;;;;5043035;28;19936;-70
2023/04/01 04:40:36;;;;;;;;;;;7.90;99.90;;;;;;5042975;28;19964;-69
2023/04/01 04:43:03;;;;;;;;;;;7.90;99.90;;;;;;5042803;28;19929;-69
2023/04/01 04:45:31;;;;;;;;;;;7.90;99.90;;;;;;5042578;28;20004;-70
2023/04/01 04:47:57;;;;;;;;;;;7.90;99.90;;;;;;5042585;28;19929;-70
2023/04/01 04:50:25;;;;;;;;;;;7.90;99.90;;;;;;5043014;28;20001;-70
2023/04/01 04:52:52;;;;;;;;;;;7.80;99.90;;;;;;5042863;28;19935;-70
2023/04/01 04:55:18;;;;;;;;;;;7.80;99.90;;;;;;5042799;28;19984;-69
2023/04/01 04:57:45;;;;;;;;;;;7.80;99.90;;;;;;5042559;28;20001;-68
2023/04/01 05:00:12;;;;;;;;;;;7.90;99.90;;;;;;5043064;28;20000;-70
2023/04/01 05:02:40;;;;;;;;;;;7.80;99.90;;;;;;5042671;28;20250;-70
2023/04/01 05:05:07;;;;;;;;;;;7.80;99.90;;;;;;5042581;28;19971;-71
2023/04/01 05:07:33;;;;;;;;;;;7.80;99.90;;;;;;5041942;28;20092;-69
2023/04/01 05:10:00;;;;;;;;;;;7.80;99.90;;;;;;5042368;28;20000;-69
2023/04/01 05:12:27;;;;;;;;;;;7.90;99.90;;;;;;5041922;28;20139;-70
2023/04/01 05:14:53;;;;;;;;;;;7.90;99.90;;;;;;5042461;28;19988;-70
2023/04/01 05:17:20;;;;;;;;;;;7.90;99.90;;;;;;5044627;28;19988;-69
2023/04/01 05:19:48;;;;;;;;;;;7.90;99.90;;;;;;5042653;28;19997;-69
2023/04/01 05:22:14;;;;;;;;;;;7.90;99.90;;;;;;5042318;28;19936;-68
2023/04/01 05:24:41;;;;;;;;;;;7.90;99.90;;;;;;5042577;28;19988;-70
2023/04/01 05:27:08;;;;;;;;;;;7.90;99.90;;;;;;5043941;28;19988;-69
2023/04/01 05:29:34;;;;;;;;;;;7.80;99.90;;;;;;5056031;28;19992;-68
2023/04/01 05:32:01;;;;;;;;;;;7.80;99.90;;;;;;5042103;28;19929;-68
2023/04/01 05:34:28;;;;;;;;;;;7.90;99.90;;;;;;5042247;28;20409;-69
2023/04/01 05:36:56;;;;;;;;;;;7.80;99.90;;;;;;5042635;28;20023;-68
2023/04/01 05:39:24;;;;;;;;;;;7.80;99.90;;;;;;5041889;28;19921;-68
2023/04/01 05:41:50;;;;;;;;;;;7.80;99.90;;;;;;5033763;28;19933;-70
2023/04/01 05:44:17;;;;;;;;;;;7.80;99.90;;;;;;5041752;28;19964;-69
2023/04/01 05:46:44;;;;;;;;;;;7.80;99.90;;;;;;5041929;28;19996;-68
2023/04/01 05:49:10;;;;;;;;;;;7.80;99.90;;;;;;5039523;28;20426;-69
2023/04/01 05:51:37;;;;;;;;;;;7.80;99.90;;;;;;5042086;28;19929;-69
2023/04/01 05:54:06;;;;;;;;;;;7.80;99.90;;;;;;5042184;28;19956;-69
2023/04/01 05:56:33;;;;;;;;;;;7.80;99.90;;;;;;5042524;28;19952;-69
2023/04/01 05:58:59;;;;;;;;;;;7.80;99.90;;;;;;5042239;28;19999;-69
2023/04/01 06:01:26;;;;;;;;;;;7.90;99.90;;;;;;5041946;28;19971;-70
2023/04/01 06:03:53;;;;;;;;;;;7.80;99.90;;;;;;5041055;28;19940;-69
2023/04/01 06:06:23;;;;;;;;;;;7.90;99.90;;;;;;5043651;28;19928;-69
2023/04/01 06:08:50;;;;;;;;;;;7.90;99.90;;;;;;5044310;28;20231;-70
2023/04/01 06:11:33;;;;;;;;;;;7.90;99.90;;;;;;5041877;28;20221;-68
2023/04/01 06:14:12;;;;;;;;;;;7.90;99.90;;;;;;5044525;28;20157;-67
2023/04/01 06:16:45;;;;;;;;;;;8.00;99.90;;;;;;5044301;28;19921;-70
2023/04/01 06:19:21;;;;;;;;;;;8.00;99.90;;;;;;5043503;28;19927;-70
2023/04/01 06:21:57;;;;;;;;;;;8.00;99.90;;;;;;5042505;28;19984;-70
2023/04/01 06:24:29;;;;;;;;;;;8.00;99.90;;;;;;5044201;28;20005;-70
2023/04/01 06:27:03;;;;;;;;;;;8.10;99.90;;;;;;5043623;28;20264;-70
2023/04/01 06:29:42;;;;;;;;;;;8.10;99.90;;;;;;5044128;28;19927;-70
2023/04/01 06:32:17;;;;;;;;;;;8.20;99.90;;;;;;5044038;28;20207;-70
2023/04/01 06:34:49;;;;;;;;;;;8.10;99.90;;;;;;5044030;28;20136;-70
2023/04/01 06:37:24;;;;;;;;;;;8.20;99.90;;;;;;5043576;28;19927;-70
2023/04/01 06:40:08;;;;;;;;;;;8.30;99.90;;;;;;5043828;28;19921;-70
2023/04/01 06:42:45;;;;;;;;;;;8.30;99.90;;;;;;5013637;28;19921;-70
2023/04/01 06:45:18;;;;;;;;;;;8.30;99.90;;;;;;5043449;28;19921;-70
2023/04/01 06:47:53;;;;;;;;;;;8.40;99.90;;;;;;5043096;28;19941;-70
2023/04/01 06:50:23;;;;;;;;;;;8.50;99.90;;;;;;5043498;28;20355;-70
2023/04/01 06:52:56;;;;;;;;;;;8.50;99.90;;;;;;5043640;28;19921;-70
2023/04/01 06:55:26;;;;;;;;;;;8.50;99.90;;;;;;5044688;28;19928;-70
2023/04/01 06:57:56;;;;;;;;;;;8.50;99.90;;;;;;5043672;28;19928;-70
2023/04/01 07:00:26;;;;;;;;;;;8.50;99.90;;;;;;5043793;28;19927;-70
2023/04/01 07:02:57;;;;;;;;;;;8.60;99.90;;;;;;5043860;28;19943;-71
2023/04/01 07:05:25;;;;;;;;;;;8.60;99.90;;;;;;5043630;28;19921;-70
2023/04/01 07:07:55;;;;;;;;;;;8.60;99.90;;;;;;5043161;28;19988;-70
2023/04/01 07:10:26;;;;;;;;;;;8.70;99.90;;;;;;5043535;28;19921;-70
2023/04/01 07:12:54;;;;;;;;;;;8.70;99.90;;;;;;5043567;28;19988;-69
2023/04/01 07:15:25;;;;;;;;;;;8.80;99.90;;;;;;5043379;28;19984;-70
2023/04/01 07:17:54;;;;;;;;;;;8.80;99.90;;;;;;5043035;28;19984;-70
2023/04/01 07:20:23;;;;;;;;;;;8.80;99.90;;;;;;5040744;28;20260;-70
2023/04/01 07:22:51;;;;;;;;;;;8.80;99.90;;;;;;5043514;28;19953;-70
2023/04/01 07:25:19;;;;;;;;;;;8.90;99.90;;;;;;5043186;28;19935;-70
2023/04/01 07:27:46;;;;;;;;;;;8.90;99.90;;;;;;5023225;28;20209;-70
2023/04/01 07:30:15;;;;;;;;;;;8.90;99.90;;;;;;5023710;28;19952;-70
2023/04/01 07:32:46;;;;;;;;;;;9.00;99.90;;;;;;5023980;28;19921;-69
2023/04/01 07:35:20;;;;;;;;;;;9.10;99.90;;;;;;5023783;28;20090;-70
2023/04/01 07:37:53;;;;;;;;;;;9.10;99.90;;;;;;5023056;28;20180;-70
2023/04/01 07:40:25;;;;;;;;;;;9.10;99.90;;;;;;5032881;28;19921;-70
2023/04/01 07:43:05;;;;;;;;;;;9.20;99.90;;;;;;5043345;28;19928;-70
2023/04/01 07:45:35;;;;;;;;;;;9.20;99.90;;;;;;5043099;28;19984;-69
2023/04/01 07:48:15;;;;;;;;;;;9.20;99.90;;;;;;5042818;28;19928;-70
2023/04/01 07:50:44;;;;;;;;;;;9.30;99.90;;;;;;5043120;28;19921;-71
2023/04/01 07:53:14;;;;;;;;;;;9.30;99.90;;;;;;5023784;28;20201;-70
2023/04/01 07:55:45;;;;;;;;;;;9.30;99.90;;;;;;5023349;28;19989;-70
2023/04/01 07:58:17;;;;;;;;;;;9.30;99.90;;;;;;5023461;28;19925;-69
2023/04/01 08:00:48;;;;;;;;;;;9.20;99.90;;;;;;5036542;28;19925;-70
2023/04/01 08:03:32;;;;;;;;;;;9.20;99.90;;;;;;5046979;28;19921;-71
2023/04/01 08:06:01;;;;;;;;;;;9.20;99.90;;;;;;5046260;28;19989;-70
2023/04/01 08:08:34;;;;;;;;;;;9.20;99.90;;;;;;5046864;28;19928;-70
2023/04/01 08:11:05;;;;;;;;;;;9.30;99.90;;;;;;5046681;28;19927;-70
2023/04/01 08:13:38;;;;;;;;;;;9.30;99.90;;;;;;5047369;28;19988;-70
2023/04/01 08:16:09;;;;;;;;;;;9.30;99.90;;;;;;5046764;28;19921;-69
2023/04/01 08:18:40;;;;;;;;;;;9.30;99.90;;;;;;5044258;28;19992;-70
2023/04/01 08:21:09;;;;;;;;;;;9.30;99.90;;;;;;5043606;28;19936;-70
2023/04/01 08:23:38;;;;;;;;;;;9.40;99.90;;;;;;5046493;28;19921;-70
2023/04/01 08:26:07;;;;;;;;;;;9.40;99.90;;;;;;5039707;28;19996;-71
2023/04/01 08:28:36;;;;;;;;;;;9.40;99.90;;;;;;5026778;28;19927;-70
2023/04/01 08:31:05;;;;;;;;;;;9.40;99.90;;;;;;5026438;28;20268;-70
2023/04/01 08:33:32;;;;;;;;;;;9.40;99.90;;;;;;5026550;28;19984;-70
2023/04/01 08:36:04;;;;;;;;;;;9.40;99.90;;;;;;5026650;28;19985;-71
2023/04/01 08:38:32;;;;;;;;;;;9.40;99.90;;;;;;5026248;28;19963;-70
2023/04/01 08:41:00;;;;;;;;;;;9.40;99.90;;;;;;5026187;28;19928;-70
2023/04/01 08:43:37;;;;;;;;;;;9.40;99.90;;;;;;5026450;28;19960;-70
2023/04/01 08:46:13;;;;;;;;;;;9.40;99.90;;;;;;5025926;28;19921;-70
2023/04/01 08:48:58;;;;;;;;;;;9.50;99.90;;;;;;5027355;28;20251;-70
2023/04/01 08:51:51;;;;;;;;;;;9.50;99.90;;;;;;5026476;28;19922;-70
2023/04/01 08:54:35;;;;;;;;;;;9.50;99.90;;;;;;5026190;28;19985;-70
2023/04/01 08:57:06;;;;;;;;;;;9.40;99.90;;;;;;5025502;28;19957;-70
2023/04/01 08:59:41;;;;;;;;;;;9.50;99.90;;;;;;5026257;28;19921;-70
2023/04/01 09:02:23;;;;;;;;;;;9.40;99.90;;;;;;5027315;28;19953;-71
2023/04/01 09:05:06;;;;;;;;;;;9.50;99.90;;;;;;5042528;28;20242;-70
2023/04/01 09:07:40;;;;;;;;;;;9.50;99.90;;;;;;5045083;28;19921;-70
2023/04/01 09:10:19;;;;;;;;;;;9.50;99.90;;;;;;5045664;28;20205;-70
2023/04/01 09:12:52;;;;;;;;;;;9.40;99.90;;;;;;5044636;28;19948;-70
2023/04/01 09:15:36;;;;;;;;;;;9.40;99.90;;;;;;5045681;28;19971;-70
2023/04/01 09:18:36;;;;;;;;;;;9.30;99.90;;;;;;5033293;28;20260;-70
2023/04/01 09:21:10;;;;;;;;;;;9.20;99.90;;;;;;5042994;28;19927;-70
2023/04/01 09:23:47;;;;;;;;;;;9.20;99.90;;;;;;5045406;28;19921;-70
2023/04/01 09:26:29;;;;;;;;;;;9.20;99.90;;;;;;5044599;28;19964;-70
2023/04/01 09:29:02;;;;;;;;;;;9.20;99.90;;;;;;5045663;28;19944;-70
2023/04/01 09:31:47;;;;;;;;;;;9.20;99.90;;;;;;5045303;28;19921;-72
2023/04/01 09:34:29;;;;;;;;;;;9.20;99.90;;;;;;5045292;28;19921;-70
2023/04/01 09:37:03;;;;;;;;;;;9.00;99.90;;;;;;5044898;28;20212;-70
2023/04/01 09:39:36;;;;;;;;;;;9.00;99.90;;;;;;5045156;28;19980;-70
2023/04/01 09:42:30;;;;;;;;;;;8.90;99.90;;;;;;5044919;28;19967;-70
2023/04/01 09:45:00;;;;;;;;;;;8.90;99.90;;;;;;5009441;28;19921;-70
2023/04/01 09:47:36;;;;;;;;;;;8.80;99.90;;;;;;5044354;28;19921;-70
2023/04/01 09:50:16;;;;;;;;;;;8.80;99.90;;;;;;5045247;28;19988;-70
2023/04/01 09:52:46;;;;;;;;;;;8.70;99.90;;;;;;5044863;28;19952;-71
2023/04/01 09:55:22;;;;;;;;;;;8.70;99.90;;;;;;5045065;28;19921;-70
2023/04/01 09:58:01;;;;;;;;;;;8.70;99.90;;;;;;5024703;28;19964;-70
2023/04/01 10:00:56;;;;;;;;;;;8.70;99.90;;;;;;5025278;28;19928;-69
2023/04/01 10:03:46;;;;;;;;;;;8.80;99.90;;;;;;5033476;28;20000;-70
2023/04/01 10:06:31;;;;;;;;;;;8.90;99.90;;;;;;5036313;28;19921;-70
2023/04/01 10:09:19;;;;;;;;;;;8.90;99.90;;;;;;5044776;28;19960;-70
2023/04/01 10:12:01;;;;;;;;;;;9.00;99.90;;;;;;5044734;28;19925;-73
2023/04/01 10:14:48;;;;;;;;;;;9.00;99.90;;;;;;5031918;28;19984;-70
2023/04/01 10:17:31;;;;;;;;;;;9.00;99.90;;;;;;5038759;28;19921;-70
2023/04/01 10:20:19;;;;;;;;;;;9.10;99.90;;;;;;5041090;28;19960;-68
2023/04/01 10:23:00;;;;;;;;;;;9.00;99.90;;;;;;5039478;28;19921;-70
2023/04/01 10:25:46;;;;;;;;;;;9.00;99.90;;;;;;5044015;28;19925;-70
2023/04/01 10:28:30;;;;;;;;;;;9.00;99.90;;;;;;5043676;28;19921;-69
2023/04/01 10:31:19;;;;;;;;;;;8.90;99.90;;;;;;5044223;28;19920;-70
2023/04/01 10:34:05;;;;;;;;;;;8.80;99.90;;;;;;5024481;28;19989;-70
2023/04/01 10:36:58;;;;;;;;;;;8.80;99.90;;;;;;5023604;28;19921;-70
2023/04/01 10:39:43;;;;;;;;;;;8.80;99.90;;;;;;4989148;28;20093;-70
2023/04/01 10:42:29;;;;;;;;;;;8.80;99.90;;;;;;5024039;28;19921;-70
2023/04/01 10:45:11;;;;;;;;;;;8.70;99.90;;;;;;5024129;28;19997;-70
2023/04/01 10:47:56;;;;;;;;;;;8.70;99.90;;;;;;5021741;28;19944;-70
2023/04/01 10:50:32;;;;;;;;;;;8.80;99.90;;;;;;5039214;28;19935;-70
2023/04/01 10:53:15;;;;;;;;;;;8.80;99.90;;;;;;5044349;28;19921;-70
2023/04/01 10:55:59;;;;;;;;;;;8.70;99.90;;;;;;5043719;28;19967;-70
2023/04/01 10:58:48;;;;;;;;;;;8.80;99.90;;;;;;5016995;28;20227;-70
2023/04/01 11:01:37;;;;;;;;;;;8.90;99.90;;;;;;5024313;28;19988;-70
2023/04/01 11:04:32;;;;;;;;;;;8.90;99.90;;;;;;5034408;28;19921;-70
2023/04/01 11:07:17;;;;;;;;;;;9.00;99.90;;;;;;5042607;28;19933;-70
2023/04/01 11:10:02;;;;;;;;;;;9.10;99.90;;;;;;5043988;28;19921;-69
2023/04/01 11:12:49;;;;;;;;;;;9.10;99.90;;;;;;5043905;28;19971;-71
2023/04/01 11:15:30;;;;;;;;;;;9.10;99.90;;;;;;5042768;28;20371;-70
2023/04/01 11:18:14;;;;;;;;;;;9.10;99.90;;;;;;5040397;28;19927;-70
2023/04/01 11:21:07;;;;;;;;;;;9.10;99.90;;;;;;5040967;28;19956;-70
2023/04/01 11:23:49;;;;;;;;;;;9.00;99.90;;;;;;5043431;28;19921;-70
2023/04/01 11:26:22;;;;;;;;;;;9.10;99.90;;;;;;5042986;28;19921;-70
2023/04/01 11:28:56;;;;;;;;;;;8.90;99.90;;;;;;5043628;28;20097;-70
2023/04/01 11:31:33;;;;;;;;;;;8.80;99.90;;;;;;5043993;28;19952;-69
2023/04/01 11:34:05;;;;;;;;;;;8.90;99.90;;;;;;5043841;28;20247;-70
2023/04/01 11:36:39;;;;;;;;;;;8.80;99.90;;;;;;5044618;28;19922;-70
2023/04/01 11:39:14;;;;;;;;;;;8.90;99.90;;;;;;5047466;28;19925;-71
2023/04/01 11:41:46;;;;;;;;;;;8.90;99.90;;;;;;5047599;28;19921;-70
2023/04/01 11:44:17;;;;;;;;;;;9.00;99.90;;;;;;5047184;28;20260;-69
2023/04/01 11:46:49;;;;;;;;;;;8.90;99.90;;;;;;5046502;28;19927;-71
2023/04/01 11:49:30;;;;;;;;;;;8.90;99.90;;;;;;5047537;28;19921;-70
2023/04/01 11:52:14;;;;;;;;;;;8.90;99.90;;;;;;5047240;28;19980;-70
2023/04/01 11:54:48;;;;;;;;;;;8.90;99.90;;;;;;5047061;28;20205;-69
2023/04/01 11:57:36;;;;;;;;;;;8.90;99.90;;;;;;5046667;28;20378;-70
2023/04/01 12:00:13;;;;;;;;;;;8.80;99.90;;;;;;5047162;28;19984;-69
2023/04/01 12:02:45;;;;;;;;;;;8.90;99.90;;;;;;5041545;28;19980;-70
2023/04/01 12:05:31;;;;;;;;;;;8.90;99.90;;;;;;5046576;28;19927;-70
2023/04/01 12:08:16;;;;;;;;;;;8.80;99.90;;;;;;5046252;28;20101;-70
2023/04/01 12:10:47;;;;;;;;;;;8.90;99.90;;;;;;5046944;28;19927;-70
2023/04/01 12:13:25;;;;;;;;;;;8.80;99.90;;;;;;5046894;28;19980;-70
2023/04/01 12:15:57;;;;;;;;;;;8.90;99.90;;;;;;5045409;28;20161;-70
2023/04/01 12:18:26;;;;;;;;;;;8.90;99.90;;;;;;5046057;28;19927;-70
2023/04/01 12:20:57;;;;;;;;;;;8.90;99.90;;;;;;5046511;28;19984;-72
2023/04/01 12:23:38;;;;;;;;;;;8.90;99.90;;;;;;5045925;28;19921;-70
2023/04/01 12:26:14;;;;;;;;;;;8.80;99.90;;;;;;5046379;28;20172;-71
2023/04/01 12:28:44;;;;;;;;;;;8.90;99.90;;;;;;5046530;28;19921;-70
2023/04/01 12:31:18;;;;;;;;;;;8.90;99.90;;;;;;5046643;28;19921;-69
2023/04/01 12:34:01;;;;;;;;;;;8.90;99.90;;;;;;5046224;28;20208;-70
2023/04/01 12:36:36;;;;;;;;;;;9.00;99.90;;;;;;5045537;28;20205;-70
2023/04/01 12:39:18;;;;;;;;;;;9.00;99.90;;;;;;5045933;28;19921;-72
2023/04/01 12:41:48;;;;;;;;;;;9.00;99.90;;;;;;5026298;28;19993;-70
2023/04/01 12:44:26;;;;;;;;;;;9.10;99.90;;;;;;5026076;28;19922;-70
2023/04/01 12:47:01;;;;;;;;;;;9.10;99.90;;;;;;5025115;28;19928;-71
2023/04/01 12:49:35;;;;;;;;;;;9.10;99.90;;;;;;5033624;28;19928;-70
2023/04/01 12:52:06;;;;;;;;;;;9.20;99.90;;;;;;5046131;28;19996;-70
2023/04/01 12:54:48;;;;;;;;;;;9.20;99.90;;;;;;5046042;28;20172;-70
2023/04/01 12:57:22;;;;;;;;;;;9.30;99.90;;;;;;5045094;28;20236;-71
2023/04/01 13:00:03;;;;;;;;;;;9.30;99.90;;;;;;5045938;28;19927;-70
2023/04/01 13:02:38;;;;;;;;;;;9.30;99.90;;;;;;5045929;28;19959;-70
2023/04/01 13:05:16;;;;;;;;;;;9.20;99.90;;;;;;5045766;28;19921;-70
2023/04/01 13:07:48;;;;;;;;;;;9.30;99.90;;;;;;5044795;28;19925;-70
2023/04/01 13:10:21;;;;;;;;;;;9.30;99.90;;;;;;5045534;28;19933;-70
2023/04/01 13:12:57;;;;;;;;;;;9.30;99.90;;;;;;5042757;28;19921;-70
2023/04/01 13:15:27;;;;;;;;;;;9.30;99.90;;;;;;5033310;28;19921;-70
2023/04/01 13:17:56;;;;;;;;;;;9.30;99.90;;;;;;5025641;28;19921;-71
2023/04/01 13:20:29;;;;;;;;;;;9.30;99.90;;;;;;5034315;28;19921;-71
2023/04/01 13:23:03;;;;;;;;;;;9.40;99.90;;;;;;5045902;28;19963;-70
2023/04/01 13:25:37;;;;;;;;;;;9.40;99.90;;;;;;5045004;28;19983;-69
2023/04/01 13:28:10;;;;;;;;;;;9.40;99.90;;;;;;5037577;28;19922;-70
2023/04/01 13:30:40;;;;;;;;;;;9.40;99.90;;;;;;5020519;28;19992;-70
2023/04/01 13:33:14;;;;;;;;;;;9.40;99.90;;;;;;5025754;28;19925;-70
2023/04/01 13:35:45;;;;;;;;;;;9.50;99.90;;;;;;5025276;28;19921;-70
2023/04/01 13:38:29;;;;;;;;;;;9.50;99.90;;;;;;5025025;28;20223;-70
2023/04/01 13:41:02;;;;;;;;;;;9.50;99.90;;;;;;5025654;28;19922;-70
2023/04/01 13:43:32;;;;;;;;;;;9.60;99.90;;;;;;5025684;28;19921;-70
2023/04/01 13:46:07;;;;;;;;;;;9.70;99.90;;;;;;5025178;28;19989;-69
2023/04/01 13:48:44;;;;;;;;;;;9.70;99.90;;;;;;5025809;28;19921;-71
2023/04/01 13:51:18;;;;;;;;;;;9.60;99.90;;;;;;5045333;28;20144;-70
2023/04/01 13:53:51;;;;;;;;;;;9.60;99.90;;;;;;5045279;28;19988;-70
2023/04/01 13:56:27;;;;;;;;;;;9.60;99.90;;;;;;5044203;28;19921;-74
2023/04/01 13:58:58;;;;;;;;;;;9.60;99.90;;;;;;5044742;28;19921;-70
2023/04/01 14:01:30;;;;;;;;;;;9.60;99.90;;;;;;5045062;28;19928;-70
2023/04/01 14:04:17;;;;;;;;;;;9.50;99.90;;;;;;5038292;28;19984;-70
2023/04/01 14:06:49;;;;;;;;;;;9.50;99.90;;;;;;5044002;28;20343;-70
2023/04/01 14:09:27;;;;;;;;;;;9.50;99.90;;;;;;5044090;28;20497;-69
2023/04/01 14:11:57;;;;;;;;;;;9.50;99.90;;;;;;5044813;28;19921;-70
2023/04/01 14:14:31;;;;;;;;;;;9.50;99.90;;;;;;5044567;28;19921;-72
2023/04/01 14:17:21;;;;;;;;;;;9.50;99.90;;;;;;5044348;28;19921;-69
2023/04/01 14:19:59;;;;;;;;;;;9.50;99.90;;;;;;5034400;28;20181;-70
2023/04/01 14:22:29;;;;;;;;;;;9.50;99.90;;;;;;5044797;28;20204;-70
2023/04/01 14:25:09;;;;;;;;;;;9.40;99.90;;;;;;5044597;28;19943;-70
2023/04/01 14:27:45;;;;;;;;;;;9.40;99.90;;;;;;5044278;28;19925;-70
2023/04/01 14:30:21;;;;;;;;;;;9.30;99.90;;;;;;5039773;28;19922;-70
2023/04/01 14:32:53;;;;;;;;;;;9.40;99.90;;;;;;5025076;28;19928;-70
2023/04/01 14:35:26;;;;;;;;;;;9.40;99.90;;;;;;5024901;28;19928;-71
2023/04/01 14:37:59;;;;;;;;;;;9.40;99.90;;;;;;5024076;28;19960;-69
2023/04/01 14:40:35;;;;;;;;;;;9.40;99.90;;;;;;5024726;28;20112;-70
2023/04/01 14:43:11;;;;;;;;;;;9.40;99.90;;;;;;5024569;28;20126;-70
2023/04/01 14:45:45;;;;;;;;;;;9.50;99.90;;;;;;5024135;28;19922;-72
2023/04/01 14:48:17;;;;;;;;;;;9.40;99.90;;;;;;5042198;28;20267;-70
2023/04/01 14:50:45;;;;;;;;;;;9.40;99.90;;;;;;5044218;28;19992;-70
2023/04/01 14:53:13;;;;;;;;;;;9.40;99.90;;;;;;5044466;28;19921;-70
2023/04/01 14:55:48;;;;;;;;;;;9.40;99.90;;;;;;5044023;28;19920;-69
2023/04/01 14:58:16;;;;;;;;;;;9.50;99.90;;;;;;5043937;28;20446;-70
2023/04/01 15:00:48;;;;;;;;;;;9.40;99.90;;;;;;5043841;28;19921;-70
2023/04/01 15:03:19;;;;;;;;;;;9.40;99.90;;;;;;5044000;28;19925;-70